createdAt,value
2022-11-22T00:00:31.408Z,6.00
2022-11-22T00:04:33.418Z,6.00
2022-11-22T00:08:35.489Z,6.03
2022-11-22T00:12:38.589Z,6.06
2022-11-22T00:16:40.639Z,6.05
2022-11-22T00:20:42.791Z,6.04
2022-11-22T00:24:46.228Z,6.02
2022-11-22T00:28:48.263Z,5.99
2022-11-22T00:32:50.365Z,5.98
2022-11-22T00:36:52.361Z,6.00
2022-11-22T00:40:54.369Z,6.03
2022-11-22T00:44:56.384Z,6.03
2022-11-22T00:48:58.407Z,6.01
2022-11-22T00:53:00.412Z,5.99
2022-11-22T00:57:02.455Z,6.01
2022-11-22T01:01:04.589Z,6.02
2022-11-22T01:05:06.864Z,5.99
2022-11-22T01:09:08.860Z,5.96
2022-11-22T01:13:12.246Z,5.97
2022-11-22T01:17:14.535Z,6.02
2022-11-22T01:21:16.573Z,6.03
2022-11-22T01:25:18.615Z,5.99
2022-11-22T01:29:20.633Z,6.00
2022-11-22T01:33:23.085Z,6.04
2022-11-22T01:37:25.107Z,6.05
2022-11-22T01:41:27.214Z,6.07
2022-11-22T01:45:29.152Z,6.11
2022-11-22T01:49:35.874Z,6.15
2022-11-22T01:53:39.776Z,6.28
2022-11-22T01:57:44.032Z,6.28
2022-11-22T02:01:46.379Z,6.29
2022-11-22T02:05:50.409Z,6.26
2022-11-22T02:09:53.359Z,6.29
2022-11-22T02:13:56.199Z,6.32
2022-11-22T02:17:58.189Z,6.30
2022-11-22T02:22:11.157Z,6.26
2022-11-22T02:26:14.654Z,6.32
2022-11-22T02:30:17.396Z,6.40
2022-11-22T02:34:19.547Z,6.43
2022-11-22T02:38:24.844Z,6.43
2022-11-22T02:42:30.243Z,6.47
2022-11-22T02:46:32.271Z,6.55
2022-11-22T02:50:34.463Z,6.58
2022-11-22T02:54:36.498Z,6.56
2022-11-22T02:58:38.766Z,6.53
2022-11-22T03:02:40.773Z,6.55
2022-11-22T03:06:42.994Z,6.58
2022-11-22T03:10:45.031Z,6.58
2022-11-22T03:14:47.074Z,6.55
2022-11-22T03:18:49.073Z,6.49
2022-11-22T03:22:51.152Z,6.50
2022-11-22T03:26:53.158Z,6.50
2022-11-22T03:30:55.158Z,6.52
2022-11-22T03:34:57.188Z,6.52
2022-11-22T03:38:59.343Z,6.52
2022-11-22T03:43:01.874Z,6.56
2022-11-22T03:47:03.921Z,6.57
2022-11-22T03:51:07.085Z,6.59
2022-11-22T03:55:09.285Z,6.59
2022-11-22T03:59:11.330Z,6.62
2022-11-22T04:03:13.335Z,6.67
2022-11-22T04:07:15.405Z,6.67
2022-11-22T04:11:17.497Z,6.68
2022-11-22T04:15:19.566Z,6.69
2022-11-22T04:19:21.568Z,6.64
2022-11-22T04:23:30.688Z,6.59
2022-11-22T04:27:35.691Z,6.55
2022-11-22T04:31:56.906Z,6.51
2022-11-22T04:35:59.133Z,6.47
2022-11-22T04:40:01.103Z,6.39
2022-11-22T04:44:21.744Z,6.30
2022-11-22T04:48:23.719Z,6.21
2022-11-22T04:52:44.383Z,6.17
2022-11-22T04:56:46.359Z,6.11
2022-11-22T05:00:49.258Z,6.09
2022-11-22T05:04:51.232Z,6.07
2022-11-22T05:08:53.225Z,6.01
2022-11-22T05:12:56.096Z,5.95
2022-11-22T05:16:58.147Z,5.93
2022-11-22T05:21:11.754Z,5.90
2022-11-22T05:25:13.879Z,5.88
2022-11-22T05:29:15.906Z,5.94
2022-11-22T05:33:17.945Z,5.96
2022-11-22T05:37:19.934Z,5.98
2022-11-22T05:41:21.995Z,5.99
2022-11-22T05:45:24.054Z,6.00
2022-11-22T05:49:26.063Z,6.00
2022-11-22T05:53:28.077Z,6.07
2022-11-22T05:57:32.490Z,6.16
2022-11-22T06:01:34.483Z,6.19
2022-11-22T06:05:36.465Z,6.15
2022-11-22T06:09:38.488Z,6.13
2022-11-22T06:13:43.938Z,6.13
2022-11-22T06:17:45.984Z,6.19
2022-11-22T06:21:47.990Z,6.27
2022-11-22T06:25:57.193Z,6.35
2022-11-22T06:29:59.213Z,6.36
2022-11-22T06:34:01.247Z,6.37
2022-11-22T06:38:03.240Z,6.31
2022-11-22T06:42:05.310Z,6.29
2022-11-22T06:46:08.334Z,6.34
2022-11-22T06:50:10.325Z,6.42
2022-11-22T06:54:12.526Z,6.51
2022-11-22T06:58:14.518Z,6.54
2022-11-22T07:02:16.584Z,6.54
2022-11-22T07:06:19.500Z,6.48
2022-11-22T07:10:21.638Z,6.36
2022-11-22T07:14:23.646Z,6.23
2022-11-22T07:18:25.763Z,6.13
2022-11-22T07:22:28.580Z,6.24
2022-11-22T07:26:30.584Z,6.26
2022-11-22T07:30:32.587Z,6.27
2022-11-22T07:34:34.632Z,6.33
2022-11-22T07:38:37.034Z,6.49
2022-11-22T07:42:39.014Z,6.56
2022-11-22T07:46:41.047Z,6.62
2022-11-22T07:50:43.481Z,6.76
2022-11-22T07:54:45.511Z,7.00
2022-11-22T07:58:47.571Z,7.00
2022-11-22T08:02:49.582Z,6.94
2022-11-22T08:06:51.671Z,6.93
2022-11-22T08:10:53.803Z,6.96
2022-11-22T08:14:55.804Z,7.01
2022-11-22T08:18:57.993Z,7.13
2022-11-22T08:23:00.014Z,7.20
2022-11-22T08:27:02.042Z,7.21
2022-11-22T08:31:07.138Z,7.24
2022-11-22T08:35:09.414Z,7.31
2022-11-22T08:39:11.415Z,7.33
2022-11-22T08:43:13.408Z,7.35
2022-11-22T08:47:15.413Z,7.40
2022-11-22T08:51:17.448Z,7.44
2022-11-22T08:55:19.479Z,7.52
2022-11-22T08:59:21.591Z,7.52
2022-11-22T09:03:23.791Z,7.49
2022-11-22T09:11:47.745Z,7.64
2022-11-22T09:15:49.747Z,7.70
2022-11-22T09:19:51.778Z,7.76
2022-11-22T09:23:54.577Z,7.89
2022-11-22T09:28:00.562Z,7.95
2022-11-22T09:32:03.382Z,7.98
2022-11-22T09:36:11.815Z,7.96
2022-11-22T09:40:15.330Z,7.98
2022-11-22T09:45:03.617Z,7.97
2022-11-22T09:49:29.285Z,7.99
2022-11-22T09:53:38.120Z,8.05
2022-11-22T09:57:47.086Z,8.05
2022-11-22T10:02:18.045Z,8.08
2022-11-22T10:06:27.359Z,8.19
2022-11-22T10:10:38.673Z,8.21
2022-11-22T10:15:02.597Z,8.16
2022-11-22T10:19:21.985Z,8.04
2022-11-22T10:23:25.805Z,7.97
2022-11-22T10:27:32.436Z,7.89
2022-11-22T10:31:45.918Z,7.87
2022-11-22T10:35:54.090Z,7.85
2022-11-22T10:40:11.734Z,7.93
2022-11-22T10:44:32.492Z,8.05
2022-11-22T10:48:57.891Z,8.17
2022-11-22T10:53:10.155Z,8.21
2022-11-22T10:57:30.999Z,8.25
2022-11-22T11:01:44.558Z,8.15
2022-11-22T11:10:37.257Z,8.05
2022-11-22T11:14:48.459Z,7.98
2022-11-22T11:18:57.887Z,7.93
2022-11-22T11:23:14.114Z,7.90
2022-11-22T11:27:19.710Z,7.95
2022-11-22T11:31:22.010Z,8.15
2022-11-22T11:35:29.062Z,8.28
2022-11-22T11:39:33.670Z,8.38
2022-11-22T11:43:42.276Z,8.45
2022-11-22T11:47:44.308Z,8.48
2022-11-22T11:51:48.872Z,8.44
2022-11-22T11:55:51.125Z,8.33
2022-11-22T11:59:55.537Z,8.28
2022-11-22T12:04:02.005Z,8.31
2022-11-22T12:08:28.736Z,8.28
2022-11-22T12:12:51.318Z,8.30
2022-11-22T12:16:58.678Z,8.32
2022-11-22T12:21:00.721Z,8.41
2022-11-22T12:25:32.466Z,8.53
2022-11-22T12:29:38.663Z,8.56
2022-11-22T12:33:43.167Z,8.54
2022-11-22T12:38:11.307Z,8.37
2022-11-22T12:42:28.094Z,8.32
2022-11-22T12:46:44.424Z,8.41
2022-11-22T12:50:53.937Z,8.33
2022-11-22T12:55:02.339Z,8.25
2022-11-22T12:59:10.370Z,8.25
2022-11-22T13:03:17.901Z,8.33
2022-11-22T13:07:52.180Z,8.42
2022-11-22T13:12:03.730Z,8.45
2022-11-22T13:16:13.084Z,8.45
2022-11-22T13:20:20.099Z,8.44
2022-11-22T13:24:31.271Z,8.35
2022-11-22T13:28:36.244Z,8.28
2022-11-22T13:32:42.851Z,8.28
2022-11-22T13:36:47.631Z,8.28
2022-11-22T13:40:51.181Z,8.23
2022-11-22T13:44:56.277Z,8.19
2022-11-22T13:49:14.399Z,8.07
2022-11-22T13:53:19.391Z,7.97
2022-11-22T13:57:38.173Z,7.89
2022-11-22T14:01:40.147Z,7.85
2022-11-22T14:05:47.998Z,7.80
2022-11-22T14:09:53.115Z,7.77
2022-11-22T14:14:13.403Z,7.71
2022-11-22T14:18:30.726Z,7.74
2022-11-22T14:22:45.559Z,7.77
2022-11-22T14:27:20.473Z,7.72
2022-11-22T14:31:29.347Z,7.71
2022-11-22T14:35:36.949Z,7.67
2022-11-22T14:39:44.759Z,7.58
2022-11-22T14:43:49.893Z,7.54
2022-11-22T14:47:56.516Z,7.50
2022-11-22T14:51:59.280Z,7.41
2022-11-22T14:56:17.156Z,7.39
2022-11-22T15:00:21.221Z,7.41
2022-11-22T15:09:10.289Z,7.37
2022-11-22T15:09:45.123Z,7.78
2022-11-22T15:14:31.770Z,7.81
2022-11-22T15:58:45.914Z,7.44
2022-11-22T16:02:50.229Z,7.43
2022-11-22T16:06:52.768Z,7.44
2022-11-22T16:10:54.863Z,7.40
2022-11-22T16:14:56.863Z,7.37
2022-11-22T16:19:21.641Z,7.34
2022-11-22T16:23:33.201Z,7.30
2022-11-22T16:27:35.448Z,7.26
2022-11-22T16:31:38.400Z,7.25
2022-11-22T16:35:40.376Z,7.24
2022-11-22T16:39:42.349Z,7.23
2022-11-22T16:43:44.886Z,7.19
2022-11-22T16:47:54.608Z,7.15
2022-11-22T16:52:11.851Z,7.18
2022-11-22T16:56:25.114Z,7.14
2022-11-22T17:00:27.325Z,7.13
2022-11-22T17:04:30.740Z,7.11
2022-11-22T17:08:32.745Z,7.12
2022-11-22T17:12:35.074Z,7.11
2022-11-22T17:16:37.306Z,7.08
2022-11-22T17:20:39.905Z,7.13
2022-11-22T17:24:42.432Z,7.10
2022-11-22T17:28:44.463Z,7.12
2022-11-22T17:32:46.490Z,7.12
2022-11-22T17:36:48.485Z,7.07
2022-11-22T17:40:58.490Z,7.10
2022-11-22T17:45:00.478Z,7.14
2022-11-22T17:49:02.725Z,7.14
2022-11-22T17:53:05.224Z,7.13
2022-11-22T17:57:07.324Z,7.14
2022-11-22T18:01:14.858Z,7.13
2022-11-22T18:05:16.881Z,7.17
2022-11-22T18:09:18.861Z,7.21
2022-11-22T18:13:22.195Z,7.28
2022-11-22T18:17:24.299Z,7.26
2022-11-22T18:21:31.836Z,7.26
2022-11-22T18:25:36.554Z,7.26
2022-11-22T18:29:53.395Z,7.26
2022-11-22T18:33:55.558Z,7.27
2022-11-22T18:37:57.665Z,7.29
2022-11-22T18:41:59.823Z,7.33
2022-11-22T18:46:03.993Z,7.33
2022-11-22T18:50:12.184Z,7.36
2022-11-22T18:54:14.532Z,7.37
2022-11-22T18:58:16.532Z,7.35
2022-11-22T19:02:19.927Z,7.31
2022-11-22T19:06:23.182Z,7.34
2022-11-22T19:10:25.407Z,7.37
2022-11-22T19:14:30.635Z,7.39
2022-11-22T19:18:41.313Z,7.36
2022-11-22T19:22:44.983Z,7.40
2022-11-22T19:26:46.965Z,7.42
2022-11-22T19:30:49.172Z,7.46
2022-11-22T19:34:51.344Z,7.49
2022-11-22T19:38:53.400Z,7.52
2022-11-22T19:42:55.409Z,7.53
2022-11-22T19:46:57.435Z,7.53
2022-11-22T19:51:05.620Z,7.55
2022-11-22T19:55:07.977Z,7.55
2022-11-22T19:59:15.517Z,7.59
2022-11-22T20:03:17.528Z,7.62
2022-11-22T20:07:19.544Z,7.63
2022-11-22T20:11:21.640Z,7.64
2022-11-22T20:15:23.777Z,7.67
2022-11-22T20:19:28.618Z,7.72
2022-11-22T20:23:36.468Z,7.73
2022-11-22T20:27:38.472Z,7.73
2022-11-22T20:31:41.224Z,7.77
2022-11-22T20:35:43.281Z,7.73
2022-11-22T20:39:45.280Z,7.67
2022-11-22T20:43:49.356Z,7.58
2022-11-22T20:47:51.377Z,7.46
2022-11-22T20:51:53.768Z,7.38
2022-11-22T20:55:56.546Z,7.27
2022-11-22T20:59:58.619Z,7.18
2022-11-22T21:04:00.700Z,7.14
2022-11-22T21:08:05.387Z,7.18
2022-11-22T21:12:07.561Z,7.23
2022-11-22T21:16:22.672Z,7.29
2022-11-22T21:20:25.811Z,7.33
2022-11-22T21:24:28.185Z,7.38
2022-11-22T21:28:36.143Z,7.43
2022-11-22T21:32:38.118Z,7.60
2022-11-22T21:36:40.171Z,7.69
2022-11-22T21:40:49.995Z,7.52
2022-11-22T21:44:52.528Z,7.31
2022-11-22T21:48:55.783Z,7.15
2022-11-22T21:52:58.684Z,7.07
2022-11-22T21:57:02.939Z,6.96
2022-11-22T22:01:10.926Z,6.85
2022-11-22T22:05:17.598Z,6.79
2022-11-22T22:09:19.713Z,6.80
2022-11-22T22:13:21.721Z,6.77
2022-11-22T22:17:23.723Z,6.82
2022-11-22T22:21:26.019Z,6.91
2022-11-22T22:25:28.008Z,6.95
2022-11-22T22:29:30.445Z,7.00
2022-11-22T22:33:33.906Z,7.01
2022-11-22T22:37:35.999Z,6.99
2022-11-22T22:41:38.055Z,7.00
2022-11-22T22:45:40.050Z,7.03
2022-11-22T22:49:42.068Z,7.01
2022-11-22T22:53:45.308Z,7.01
2022-11-22T22:57:47.306Z,7.00
2022-11-22T23:01:49.281Z,7.02
2022-11-22T23:05:51.381Z,7.02
2022-11-22T23:09:53.406Z,7.04
2022-11-22T23:13:55.412Z,7.03
2022-11-22T23:17:57.443Z,7.03
2022-11-22T23:21:59.607Z,7.07
2022-11-22T23:26:07.130Z,7.11
2022-11-22T23:30:09.701Z,7.17
2022-11-22T23:34:11.864Z,7.24
2022-11-22T23:38:13.913Z,7.23
2022-11-22T23:42:15.916Z,7.24
2022-11-22T23:46:18.053Z,7.21
2022-11-22T23:50:20.115Z,7.13
2022-11-22T23:54:22.127Z,7.15
2022-11-22T23:58:24.135Z,7.15
